createdAt,value
2018-08-11T00:00:06.513Z,24.45
2018-08-11T00:02:33.420Z,24.45
2018-08-11T00:05:00.355Z,24.45
2018-08-11T00:07:27.265Z,24.45
2018-08-11T00:09:54.209Z,24.45
2018-08-11T00:12:21.157Z,24.46
2018-08-11T00:14:48.049Z,24.44
2018-08-11T00:17:14.958Z,24.46
2018-08-11T00:19:41.867Z,24.46
2018-08-11T00:22:08.782Z,24.46
2018-08-11T00:24:35.694Z,24.46
2018-08-11T00:27:02.666Z,24.46
2018-08-11T00:29:29.578Z,24.46
2018-08-11T00:31:56.493Z,24.47
2018-08-11T00:34:23.411Z,24.47
2018-08-11T00:36:50.316Z,24.47
2018-08-11T00:39:17.224Z,22.89
2018-08-11T00:41:44.154Z,22.32
2018-08-11T00:44:11.524Z,22.04
2018-08-11T00:46:38.538Z,21.85
2018-08-11T00:49:05.481Z,21.81
2018-08-11T00:51:32.424Z,21.61
2018-08-11T00:53:59.337Z,21.73
2018-08-11T00:56:26.270Z,21.91
2018-08-11T00:58:53.169Z,21.63
2018-08-11T01:01:20.332Z,21.20
2018-08-11T01:03:47.258Z,21.30
2018-08-11T01:06:14.174Z,21.15
2018-08-11T01:08:41.078Z,21.18
2018-08-11T01:11:07.999Z,21.08
2018-08-11T01:13:34.937Z,21.03
2018-08-11T01:16:01.832Z,21.16
2018-08-11T01:18:28.765Z,21.11
2018-08-11T01:20:55.674Z,20.80
2018-08-11T01:23:22.581Z,20.81
2018-08-11T01:25:49.481Z,20.60
2018-08-11T01:28:16.386Z,20.71
2018-08-11T01:30:43.302Z,20.58
2018-08-11T01:33:10.196Z,20.53
2018-08-11T01:35:37.111Z,20.57
2018-08-11T01:38:04.008Z,20.56
2018-08-11T01:40:30.914Z,20.81
2018-08-11T01:42:57.816Z,20.77
2018-08-11T01:45:24.730Z,20.53
2018-08-11T01:47:51.628Z,20.38
2018-08-11T01:50:18.541Z,20.65
2018-08-11T01:52:46.592Z,20.67
2018-08-11T01:55:14.567Z,20.47
2018-08-11T01:57:41.823Z,20.98
2018-08-11T02:00:09.186Z,21.34
2018-08-11T02:02:36.107Z,21.35
2018-08-11T02:05:03.021Z,21.12
2018-08-11T02:07:29.968Z,21.01
2018-08-11T02:09:56.868Z,20.78
2018-08-11T02:12:23.773Z,20.51
2018-08-11T02:14:50.678Z,20.27
2018-08-11T02:17:17.596Z,20.15
2018-08-11T02:19:44.539Z,20.04
2018-08-11T02:22:11.434Z,20.21
2018-08-11T02:24:38.406Z,20.74
2018-08-11T02:27:05.293Z,20.91
2018-08-11T02:29:32.198Z,20.81
2018-08-11T02:31:59.116Z,21.14
2018-08-11T02:34:26.236Z,21.24
2018-08-11T02:36:53.046Z,21.29
2018-08-11T02:39:19.980Z,21.14
2018-08-11T02:41:46.884Z,21.29
2018-08-11T02:44:13.802Z,21.59
2018-08-11T02:46:40.745Z,21.75
2018-08-11T02:49:08.370Z,21.85
2018-08-11T02:51:35.342Z,21.92
2018-08-11T02:54:02.765Z,22.00
2018-08-11T02:56:29.702Z,22.06
2018-08-11T02:58:56.608Z,22.14
2018-08-11T03:01:23.504Z,22.19
2018-08-11T03:03:50.422Z,22.23
2018-08-11T03:06:17.330Z,22.14
2018-08-11T03:08:44.258Z,22.13
2018-08-11T03:11:11.161Z,22.12
2018-08-11T03:13:38.088Z,22.11
2018-08-11T03:16:04.988Z,22.04
2018-08-11T03:18:31.894Z,22.06
2018-08-11T03:20:58.793Z,22.07
2018-08-11T03:23:25.717Z,22.12
2018-08-11T03:25:52.616Z,22.05
2018-08-11T03:28:19.524Z,21.96
2018-08-11T03:30:46.465Z,22.03
2018-08-11T03:33:13.386Z,21.69
2018-08-11T03:35:40.289Z,21.50
2018-08-11T03:38:07.287Z,21.09
2018-08-11T03:40:34.189Z,21.03
2018-08-11T03:43:01.094Z,20.98
2018-08-11T03:45:28.000Z,20.87
2018-08-11T03:47:54.896Z,20.74
2018-08-11T03:50:21.804Z,20.73
2018-08-11T03:52:48.734Z,20.62
2018-08-11T03:55:15.654Z,20.60
2018-08-11T03:57:42.596Z,20.53
2018-08-11T04:00:10.208Z,20.48
2018-08-11T04:02:37.148Z,20.36
2018-08-11T04:05:04.054Z,20.46
2018-08-11T04:07:30.992Z,20.43
2018-08-11T04:09:57.916Z,20.36
2018-08-11T04:12:24.829Z,20.36
2018-08-11T04:14:51.752Z,20.29
2018-08-11T04:17:18.685Z,20.27
2018-08-11T04:19:45.597Z,20.29
2018-08-11T04:22:12.526Z,20.20
2018-08-11T04:24:39.448Z,20.25
2018-08-11T04:27:06.358Z,20.12
2018-08-11T04:29:33.257Z,20.18
2018-08-11T04:32:00.173Z,20.20
2018-08-11T04:34:27.085Z,20.13
2018-08-11T04:36:53.997Z,20.09
2018-08-11T04:39:20.901Z,20.05
2018-08-11T04:41:47.812Z,20.11
2018-08-11T04:44:14.723Z,20.07
2018-08-11T04:46:41.637Z,20.13
2018-08-11T04:49:08.550Z,20.13
2018-08-11T04:51:35.462Z,20.06
2018-08-11T04:54:02.357Z,20.10
2018-08-11T04:56:29.251Z,20.21
2018-08-11T04:58:56.162Z,20.12
2018-08-11T05:01:23.077Z,19.97
2018-08-11T05:03:50.010Z,20.03
2018-08-11T05:06:16.913Z,20.09
2018-08-11T05:08:43.863Z,20.18
2018-08-11T05:11:10.786Z,20.18
2018-08-11T05:13:37.681Z,20.16
2018-08-11T05:16:04.571Z,20.13
2018-08-11T05:18:31.478Z,20.10
2018-08-11T05:20:58.385Z,20.08
2018-08-11T05:23:25.294Z,19.99
2018-08-11T05:25:52.204Z,19.94
2018-08-11T05:28:19.095Z,19.73
2018-08-11T05:30:46.005Z,19.89
2018-08-11T05:33:12.938Z,19.86
2018-08-11T05:35:39.843Z,19.99
2018-08-11T05:38:06.735Z,19.98
2018-08-11T05:40:33.657Z,20.14
2018-08-11T05:43:00.561Z,19.84
2018-08-11T05:45:27.813Z,19.95
2018-08-11T05:47:54.708Z,20.01
2018-08-11T05:50:21.662Z,20.07
2018-08-11T05:52:48.572Z,20.10
2018-08-11T05:55:15.515Z,20.09
2018-08-11T05:57:42.401Z,20.08
2018-08-11T06:00:09.764Z,20.11
2018-08-11T06:02:36.660Z,20.16
2018-08-11T06:05:03.600Z,20.18
2018-08-11T06:07:30.496Z,20.11
2018-08-11T06:09:57.417Z,19.99
2018-08-11T06:12:24.350Z,20.05
2018-08-11T06:14:51.265Z,20.04
2018-08-11T06:17:18.220Z,19.98
2018-08-11T06:19:45.133Z,20.10
2018-08-11T06:22:12.062Z,19.99
2018-08-11T06:24:38.960Z,19.90
2018-08-11T06:27:05.901Z,20.08
2018-08-11T06:29:32.805Z,20.21
2018-08-11T06:31:59.742Z,20.31
2018-08-11T06:34:26.651Z,20.33
2018-08-11T06:36:53.569Z,19.97
2018-08-11T06:39:20.498Z,19.84
2018-08-11T06:41:47.420Z,19.88
2018-08-11T06:44:14.376Z,19.66
2018-08-11T06:46:41.324Z,19.84
2018-08-11T06:49:08.318Z,19.95
2018-08-11T06:51:35.318Z,19.86
2018-08-11T06:54:02.250Z,19.63
2018-08-11T06:56:29.173Z,19.54
2018-08-11T06:58:56.102Z,19.95
2018-08-11T07:01:23.016Z,19.97
2018-08-11T07:03:49.946Z,20.08
2018-08-11T07:06:16.840Z,20.21
2018-08-11T07:08:43.759Z,20.27
2018-08-11T07:11:10.661Z,20.44
2018-08-11T07:13:37.579Z,19.90
2018-08-11T07:16:04.497Z,20.06
2018-08-11T07:18:31.421Z,19.67
2018-08-11T07:20:58.329Z,20.10
2018-08-11T07:23:25.296Z,20.23
2018-08-11T07:25:52.213Z,20.10
2018-08-11T07:28:19.126Z,20.20
2018-08-11T07:30:46.040Z,20.05
2018-08-11T07:33:12.977Z,20.36
2018-08-11T07:35:40.926Z,20.67
2018-08-11T07:38:07.870Z,20.82
2018-08-11T07:40:34.790Z,20.94
2018-08-11T07:43:01.731Z,21.02
2018-08-11T07:45:28.633Z,21.10
2018-08-11T07:47:55.528Z,21.16
2018-08-11T07:50:22.491Z,21.20
2018-08-11T07:52:49.348Z,21.24
2018-08-11T07:55:16.261Z,21.26
2018-08-11T07:57:43.161Z,21.31
2018-08-11T08:00:11.341Z,21.35
2018-08-11T08:02:38.632Z,21.40
2018-08-11T08:05:05.528Z,21.42
2018-08-11T08:07:32.413Z,21.46
2018-08-11T08:09:59.305Z,21.48
2018-08-11T08:12:26.211Z,21.49
2018-08-11T08:14:53.126Z,21.51
2018-08-11T08:17:20.032Z,21.54
2018-08-11T08:19:46.969Z,21.57
2018-08-11T08:22:13.879Z,21.64
2018-08-11T08:24:40.776Z,21.69
2018-08-11T08:27:07.673Z,21.73
2018-08-11T08:29:34.575Z,21.76
2018-08-11T08:32:01.479Z,21.79
2018-08-11T08:34:28.377Z,21.83
2018-08-11T08:36:55.287Z,21.84
2018-08-11T08:39:22.205Z,21.89
2018-08-11T08:41:49.129Z,21.91
2018-08-11T08:44:16.030Z,21.94
2018-08-11T08:46:42.934Z,21.97
2018-08-11T08:49:09.834Z,22.00
2018-08-11T08:51:36.823Z,22.02
2018-08-11T08:54:03.721Z,22.04
2018-08-11T08:56:30.631Z,22.07
2018-08-11T08:58:57.536Z,22.11
2018-08-11T09:01:24.529Z,22.14
2018-08-11T09:03:51.425Z,22.15
2018-08-11T09:06:18.323Z,22.19
2018-08-11T09:08:45.216Z,22.21
2018-08-11T09:11:12.117Z,22.23
2018-08-11T09:13:39.087Z,22.24
2018-08-11T09:16:05.997Z,22.26
2018-08-11T09:18:32.909Z,22.28
2018-08-11T09:20:59.902Z,22.33
2018-08-11T09:23:26.817Z,22.34
2018-08-11T09:25:53.700Z,22.36
2018-08-11T09:28:20.665Z,22.40
2018-08-11T09:30:47.563Z,22.42
2018-08-11T09:33:14.449Z,22.45
2018-08-11T09:35:41.345Z,22.41
2018-08-11T09:38:08.339Z,22.37
2018-08-11T09:40:35.272Z,22.35
2018-08-11T09:43:02.219Z,22.34
2018-08-11T09:45:29.576Z,22.32
2018-08-11T09:47:56.851Z,22.35
2018-08-11T09:50:24.036Z,22.35
2018-08-11T09:52:51.219Z,22.35
2018-08-11T09:55:19.520Z,22.36
2018-08-11T09:57:47.269Z,22.38
2018-08-11T10:00:14.622Z,22.38
2018-08-11T10:02:41.796Z,22.39
2018-08-11T10:05:09.127Z,22.38
2018-08-11T10:07:36.367Z,22.39
2018-08-11T10:10:03.576Z,22.40
2018-08-11T10:12:30.968Z,22.41
2018-08-11T10:14:58.127Z,22.41
2018-08-11T10:17:25.308Z,22.42
2018-08-11T10:19:52.246Z,22.44
2018-08-11T10:22:19.282Z,22.44
2018-08-11T10:24:46.220Z,22.44
2018-08-11T10:27:13.136Z,22.46
2018-08-11T10:29:40.085Z,22.46
2018-08-11T10:32:06.984Z,22.47
2018-08-11T10:34:33.869Z,22.47
2018-08-11T10:37:00.783Z,22.48
2018-08-11T10:39:27.952Z,22.47
2018-08-11T10:41:54.917Z,22.48
2018-08-11T10:44:21.837Z,22.49
2018-08-11T10:46:48.957Z,22.50
2018-08-11T10:49:15.889Z,22.51
2018-08-11T10:51:42.858Z,22.51
2018-08-11T10:54:09.752Z,22.52
2018-08-11T10:56:36.701Z,22.53
2018-08-11T10:59:03.612Z,22.52
2018-08-11T11:01:30.545Z,22.54
2018-08-11T11:03:57.463Z,22.55
2018-08-11T11:06:24.373Z,22.56
2018-08-11T11:08:51.294Z,22.57
2018-08-11T11:11:18.245Z,22.57
2018-08-11T11:13:45.154Z,22.57
2018-08-11T11:16:12.078Z,22.58
2018-08-11T11:18:39.001Z,22.59
2018-08-11T11:21:06.248Z,22.60
2018-08-11T11:23:33.273Z,22.60
2018-08-11T11:26:00.213Z,22.61
2018-08-11T11:28:27.214Z,22.61
2018-08-11T11:30:54.152Z,22.62
2018-08-11T11:33:21.242Z,22.62
2018-08-11T11:35:48.214Z,22.62
2018-08-11T11:38:15.211Z,22.62
2018-08-11T11:40:42.153Z,22.63
2018-08-11T11:43:09.073Z,22.65
2018-08-11T11:45:36.009Z,22.66
2018-08-11T11:48:02.964Z,22.65
2018-08-11T11:50:29.861Z,22.66
2018-08-11T11:52:56.756Z,22.67
2018-08-11T11:55:23.903Z,22.67
2018-08-11T11:57:51.216Z,22.68
2018-08-11T12:00:18.263Z,22.68
2018-08-11T12:02:45.217Z,22.69
2018-08-11T12:05:12.144Z,22.69
2018-08-11T12:07:39.131Z,22.70
2018-08-11T12:10:06.081Z,22.70
2018-08-11T12:12:33.024Z,22.70
2018-08-11T12:14:59.994Z,22.71
2018-08-11T12:17:26.929Z,22.72
2018-08-11T12:19:53.833Z,22.72
2018-08-11T12:22:20.757Z,22.72
2018-08-11T12:24:47.674Z,22.74
2018-08-11T12:27:14.678Z,22.74
2018-08-11T12:29:41.622Z,22.73
2018-08-11T12:32:08.529Z,22.76
2018-08-11T12:34:35.476Z,22.76
2018-08-11T12:37:02.385Z,22.76
2018-08-11T12:39:29.337Z,22.77
2018-08-11T12:41:56.281Z,22.76
2018-08-11T12:44:23.238Z,22.77
2018-08-11T12:46:50.234Z,22.77
2018-08-11T12:49:17.217Z,22.78
2018-08-11T12:51:44.140Z,22.79
2018-08-11T12:54:11.144Z,22.79
2018-08-11T12:56:38.049Z,22.80
2018-08-11T12:59:04.953Z,22.80
2018-08-11T13:01:31.905Z,22.81
2018-08-11T13:03:58.881Z,22.81
2018-08-11T13:06:25.954Z,22.82
2018-08-11T13:08:52.969Z,22.81
2018-08-11T13:11:19.962Z,22.82
2018-08-11T13:13:46.881Z,22.82
2018-08-11T13:16:13.825Z,22.83
2018-08-11T13:18:41.172Z,22.85
2018-08-11T13:21:08.128Z,22.85
2018-08-11T13:23:35.104Z,22.85
2018-08-11T13:26:02.041Z,22.86
2018-08-11T13:28:29.042Z,22.86
2018-08-11T13:30:55.971Z,22.88
2018-08-11T13:33:22.868Z,22.87
2018-08-11T13:35:49.911Z,22.88
2018-08-11T13:38:17.029Z,22.90
2018-08-11T13:40:43.949Z,22.89
2018-08-11T13:43:10.877Z,22.89
2018-08-11T13:45:37.936Z,22.96
2018-08-11T13:48:04.901Z,23.00
2018-08-11T13:50:31.845Z,23.03
2018-08-11T13:52:59.220Z,23.06
2018-08-11T13:55:26.139Z,23.09
2018-08-11T13:57:53.085Z,23.10
2018-08-11T14:00:20.035Z,23.13
2018-08-11T14:02:47.953Z,23.14
2018-08-11T14:05:14.866Z,23.12
2018-08-11T14:07:41.974Z,23.13
2018-08-11T14:10:10.013Z,23.13
2018-08-11T14:12:36.953Z,23.13
2018-08-11T14:15:04.297Z,23.14
2018-08-11T14:17:31.277Z,23.15
2018-08-11T14:19:58.260Z,23.16
2018-08-11T14:22:25.187Z,23.16
2018-08-11T14:24:52.162Z,23.16
2018-08-11T14:27:19.120Z,23.17
2018-08-11T14:29:46.034Z,23.18
2018-08-11T14:32:12.947Z,23.19
2018-08-11T14:34:39.884Z,23.19
2018-08-11T14:37:06.822Z,23.20
2018-08-11T14:39:33.729Z,23.20
2018-08-11T14:42:00.680Z,23.21
2018-08-11T14:44:27.643Z,23.22
2018-08-11T14:46:54.558Z,23.21
2018-08-11T14:49:21.477Z,23.22
2018-08-11T14:51:48.420Z,23.24
2018-08-11T14:54:15.320Z,23.23
2018-08-11T14:56:42.244Z,23.25
2018-08-11T14:59:09.169Z,23.25
2018-08-11T15:01:36.122Z,23.25
2018-08-11T15:04:03.033Z,23.24
2018-08-11T15:06:30.090Z,23.26
2018-08-11T15:08:57.026Z,23.25
2018-08-11T15:11:23.996Z,23.27
2018-08-11T15:13:50.968Z,23.27
2018-08-11T15:16:17.929Z,23.29
2018-08-11T15:18:44.915Z,23.28
2018-08-11T15:21:11.841Z,23.28
2018-08-11T15:23:38.837Z,23.30
2018-08-11T15:26:05.737Z,23.31
2018-08-11T15:28:32.624Z,23.32
2018-08-11T15:30:59.630Z,23.34
2018-08-11T15:33:26.707Z,23.32
2018-08-11T15:35:54.034Z,23.31
2018-08-11T15:38:21.209Z,23.28
2018-08-11T15:40:48.146Z,23.30
2018-08-11T15:43:15.185Z,23.29
2018-08-11T15:45:42.265Z,23.28
2018-08-11T15:48:09.450Z,23.29
2018-08-11T15:50:36.521Z,23.28
2018-08-11T15:53:03.504Z,23.29
2018-08-11T15:55:30.499Z,23.28
2018-08-11T15:57:57.444Z,23.28
2018-08-11T16:00:24.354Z,23.28
2018-08-11T16:02:51.599Z,23.28
2018-08-11T16:05:18.644Z,23.29
2018-08-11T16:07:45.572Z,23.29
2018-08-11T16:10:12.681Z,23.29
2018-08-11T16:12:39.661Z,23.28
2018-08-11T16:15:06.658Z,23.29
2018-08-11T16:17:33.747Z,23.33
2018-08-11T16:20:00.722Z,23.33
2018-08-11T16:22:27.645Z,23.34
2018-08-11T16:24:54.541Z,23.34
2018-08-11T16:27:21.495Z,23.33
2018-08-11T16:29:48.498Z,23.34
2018-08-11T16:32:15.816Z,23.31
2018-08-11T16:34:42.765Z,23.35
2018-08-11T16:37:09.709Z,23.35
2018-08-11T16:39:36.649Z,23.35
2018-08-11T16:42:03.609Z,23.37
2018-08-11T16:44:30.511Z,23.36
2018-08-11T16:46:57.444Z,23.36
2018-08-11T16:49:24.537Z,23.37
2018-08-11T16:51:51.464Z,23.37
2018-08-11T16:54:18.441Z,23.37
2018-08-11T16:56:45.381Z,23.38
2018-08-11T16:59:12.297Z,23.39
2018-08-11T17:01:39.231Z,23.38
2018-08-11T17:04:06.197Z,23.39
2018-08-11T17:06:33.126Z,23.38
2018-08-11T17:09:00.018Z,23.38
2018-08-11T17:11:26.921Z,23.39
2018-08-11T17:13:53.864Z,23.40
2018-08-11T17:16:20.779Z,23.39
2018-08-11T17:18:47.664Z,23.40
2018-08-11T17:21:14.618Z,23.41
2018-08-11T17:23:41.531Z,23.41
2018-08-11T17:26:08.476Z,23.41
2018-08-11T17:28:35.369Z,23.41
2018-08-11T17:31:02.366Z,23.42
2018-08-11T17:33:29.365Z,23.42
2018-08-11T17:35:56.258Z,23.43
2018-08-11T17:38:23.146Z,23.42
2018-08-11T17:40:50.136Z,23.43
2018-08-11T17:43:17.014Z,23.44
2018-08-11T17:45:43.901Z,23.43
2018-08-11T17:48:10.789Z,23.44
2018-08-11T17:50:37.737Z,23.43
2018-08-11T17:53:04.617Z,23.44
2018-08-11T17:55:31.586Z,23.44
2018-08-11T17:57:58.416Z,23.44
2018-08-11T18:00:25.313Z,23.44
2018-08-11T18:02:52.237Z,23.45
2018-08-11T18:05:19.134Z,23.45
2018-08-11T18:07:46.162Z,23.45
2018-08-11T18:10:13.180Z,23.45
2018-08-11T18:12:40.179Z,23.45
2018-08-11T18:15:07.036Z,23.45
2018-08-11T18:17:33.929Z,23.46
2018-08-11T18:20:00.841Z,23.45
2018-08-11T18:22:27.857Z,23.46
2018-08-11T18:24:54.740Z,23.46
2018-08-11T18:27:21.633Z,23.47
2018-08-11T18:29:48.549Z,23.47
2018-08-11T18:32:15.476Z,23.46
2018-08-11T18:34:42.396Z,23.47
2018-08-11T18:37:09.294Z,23.47
2018-08-11T18:39:36.181Z,23.47
2018-08-11T18:42:03.074Z,23.48
2018-08-11T18:44:29.989Z,23.49
2018-08-11T18:46:56.884Z,23.47
2018-08-11T18:49:23.774Z,23.48
2018-08-11T18:51:51.032Z,23.48
2018-08-11T18:54:18.014Z,23.49
2018-08-11T18:56:44.951Z,23.28
2018-08-11T18:59:11.893Z,22.81
2018-08-11T19:01:38.886Z,22.68
2018-08-11T19:04:05.793Z,22.58
2018-08-11T19:06:32.721Z,22.60
2018-08-11T19:08:59.650Z,22.55
2018-08-11T19:11:26.537Z,22.61
2018-08-11T19:13:53.473Z,22.56
2018-08-11T19:16:20.361Z,22.31
2018-08-11T19:18:47.260Z,22.30
2018-08-11T19:21:14.154Z,22.30
2018-08-11T19:23:41.044Z,22.23
2018-08-11T19:26:08.060Z,22.20
2018-08-11T19:28:35.223Z,22.05
2018-08-11T19:31:02.575Z,21.95
2018-08-11T19:33:29.495Z,21.95
2018-08-11T19:35:56.386Z,21.96
2018-08-11T19:38:23.281Z,21.87
2018-08-11T19:40:50.207Z,21.90
2018-08-11T19:43:17.115Z,21.85
2018-08-11T19:45:44.019Z,21.93
2018-08-11T19:48:10.998Z,22.24
2018-08-11T19:50:37.930Z,22.41
2018-08-11T19:53:04.895Z,22.48
2018-08-11T19:55:31.856Z,22.54
2018-08-11T19:57:58.805Z,22.57
2018-08-11T20:00:25.765Z,22.61
2018-08-11T20:02:52.738Z,22.61
2018-08-11T20:05:19.673Z,22.64
2018-08-11T20:07:46.606Z,22.65
2018-08-11T20:10:13.576Z,22.71
2018-08-11T20:12:40.616Z,22.73
2018-08-11T20:15:07.613Z,22.74
2018-08-11T20:17:34.570Z,22.74
2018-08-11T20:20:01.504Z,22.76
2018-08-11T20:22:28.410Z,22.77
2018-08-11T20:24:55.347Z,22.79
2018-08-11T20:27:22.301Z,22.80
2018-08-11T20:29:49.227Z,22.82
2018-08-11T20:32:16.187Z,22.84
2018-08-11T20:34:43.718Z,22.85
2018-08-11T20:37:11.668Z,22.86
2018-08-11T20:39:38.598Z,22.88
2018-08-11T20:42:05.690Z,22.89
2018-08-11T20:44:32.659Z,22.90
2018-08-11T20:46:59.948Z,22.91
2018-08-11T20:49:26.902Z,22.92
2018-08-11T20:51:53.855Z,22.95
2018-08-11T20:54:20.776Z,22.95
2018-08-11T20:56:47.802Z,22.97
2018-08-11T20:59:14.741Z,22.96
2018-08-11T21:01:41.722Z,22.98
2018-08-11T21:04:08.639Z,23.00
2018-08-11T21:06:35.615Z,22.99
2018-08-11T21:09:02.589Z,23.00
2018-08-11T21:11:29.536Z,23.01
2018-08-11T21:13:56.519Z,23.02
2018-08-11T21:16:23.609Z,23.04
2018-08-11T21:18:50.893Z,23.03
2018-08-11T21:21:17.804Z,23.04
2018-08-11T21:23:44.815Z,23.04
2018-08-11T21:26:11.713Z,23.05
2018-08-11T21:28:38.656Z,23.05
2018-08-11T21:31:05.573Z,23.06
2018-08-11T21:33:32.509Z,23.07
2018-08-11T21:35:59.404Z,23.08
2018-08-11T21:38:26.311Z,23.08
2018-08-11T21:40:53.252Z,23.09
2018-08-11T21:43:20.188Z,23.10
2018-08-11T21:45:47.261Z,23.09
2018-08-11T21:48:14.191Z,23.09
2018-08-11T21:50:41.138Z,23.11
2018-08-11T21:53:08.084Z,23.11
2018-08-11T21:55:35.041Z,23.11
2018-08-11T21:58:01.984Z,23.13
2018-08-11T22:00:29.781Z,23.13
2018-08-11T22:02:56.774Z,23.13
2018-08-11T22:05:24.196Z,23.13
2018-08-11T22:07:51.125Z,23.15
2018-08-11T22:10:18.055Z,23.15
2018-08-11T22:12:44.977Z,23.15
2018-08-11T22:15:11.985Z,23.16
2018-08-11T22:17:38.993Z,23.16
2018-08-11T22:20:05.973Z,23.16
2018-08-11T22:22:32.952Z,23.16
2018-08-11T22:24:59.873Z,23.17
2018-08-11T22:27:26.853Z,23.18
2018-08-11T22:29:53.852Z,23.17
2018-08-11T22:32:20.772Z,23.18
2018-08-11T22:34:47.668Z,23.18
2018-08-11T22:37:14.629Z,23.19
2018-08-11T22:39:41.578Z,23.20
2018-08-11T22:42:08.519Z,23.19
2018-08-11T22:44:35.461Z,23.20
2018-08-11T22:47:02.429Z,23.21
2018-08-11T22:49:29.401Z,23.19
2018-08-11T22:51:56.325Z,23.20
2018-08-11T22:54:23.295Z,23.21
2018-08-11T22:56:50.233Z,23.22
2018-08-11T22:59:17.235Z,23.21
2018-08-11T23:01:44.202Z,23.21
2018-08-11T23:04:11.213Z,23.22
2018-08-11T23:06:38.153Z,23.22
2018-08-11T23:09:05.147Z,23.23
2018-08-11T23:11:32.126Z,23.23
2018-08-11T23:13:59.030Z,23.23
2018-08-11T23:16:25.944Z,23.22
2018-08-11T23:18:52.874Z,23.23
2018-08-11T23:21:19.815Z,23.24
2018-08-11T23:23:46.779Z,23.24
2018-08-11T23:26:13.721Z,23.24
2018-08-11T23:28:40.663Z,23.25
2018-08-11T23:31:07.645Z,23.26
2018-08-11T23:33:34.693Z,23.26
2018-08-11T23:36:01.621Z,23.24
2018-08-11T23:38:28.621Z,23.24
2018-08-11T23:40:55.625Z,23.25
2018-08-11T23:43:22.622Z,23.25
2018-08-11T23:45:49.563Z,23.26
2018-08-11T23:48:16.574Z,23.25
2018-08-11T23:50:43.513Z,23.27
2018-08-11T23:53:10.434Z,23.27
2018-08-11T23:55:37.357Z,23.27
2018-08-11T23:58:04.295Z,23.28
